createdAt,value
2023-07-05T00:01:50.443Z,100507.19
2023-07-05T00:04:52.889Z,100494.31
2023-07-05T00:07:55.341Z,100508.38
2023-07-05T00:11:08.885Z,100508.03
2023-07-05T00:14:11.353Z,100506.03
2023-07-05T00:17:13.786Z,100488.84
2023-07-05T00:20:17.069Z,100502.53
2023-07-05T00:23:19.444Z,100497.41
2023-07-05T00:26:21.873Z,100507.66
2023-07-05T00:29:24.246Z,100500.94
2023-07-05T00:32:26.789Z,100507.66
2023-07-05T00:35:29.178Z,100499.00
2023-07-05T00:38:31.885Z,100486.50
2023-07-05T00:41:34.310Z,100473.50
2023-07-05T00:44:36.772Z,100487.19
2023-07-05T00:47:41.448Z,100478.50
2023-07-05T00:50:47.438Z,100481.31
2023-07-05T00:53:50.220Z,100480.16
2023-07-05T00:57:01.850Z,100484.84
2023-07-05T01:00:09.076Z,100480.22
2023-07-05T01:03:13.996Z,100460.69
2023-07-05T01:06:16.396Z,100474.75
2023-07-05T01:09:21.083Z,100487.66
2023-07-05T01:12:36.901Z,100484.91
2023-07-05T01:15:49.831Z,100481.38
2023-07-05T01:19:04.704Z,100486.09
2023-07-05T01:22:10.281Z,100466.47
2023-07-05T01:25:36.578Z,100471.16
2023-07-05T01:29:16.810Z,100475.47
2023-07-05T01:32:30.475Z,100473.13
2023-07-05T01:35:37.401Z,100462.94
2023-07-05T01:38:39.770Z,100451.19
2023-07-05T01:41:43.061Z,100460.53
2023-07-05T01:44:46.014Z,100449.59
2023-07-05T01:48:05.834Z,100459.75
2023-07-05T01:51:10.291Z,100462.94
2023-07-05T01:54:40.741Z,100470.44
2023-07-05T01:57:52.986Z,100451.97
2023-07-05T02:00:57.146Z,100460.59
2023-07-05T02:03:59.896Z,100451.19
2023-07-05T02:07:05.308Z,100462.97
2023-07-05T02:10:08.041Z,100441.44
2023-07-05T02:13:12.453Z,100462.16
2023-07-05T02:16:14.976Z,100464.16
2023-07-05T02:19:18.354Z,100455.97
2023-07-05T02:22:20.799Z,100455.50
2023-07-05T02:25:23.492Z,100466.13
2023-07-05T02:28:25.926Z,100467.72
2023-07-05T02:31:29.730Z,100459.47
2023-07-05T02:34:32.233Z,100466.16
2023-07-05T02:37:36.294Z,100449.78
2023-07-05T02:40:38.696Z,100464.56
2023-07-05T02:43:41.074Z,100461.44
2023-07-05T02:46:43.530Z,100453.63
2023-07-05T02:49:46.029Z,100464.19
2023-07-05T02:52:48.731Z,100471.69
2023-07-05T02:55:52.408Z,100456.06
2023-07-05T02:58:54.956Z,100470.13
2023-07-05T03:01:57.453Z,100471.31
2023-07-05T03:05:07.510Z,100459.56
2023-07-05T03:08:10.358Z,100461.13
2023-07-05T03:11:12.749Z,100458.41
2023-07-05T03:14:15.193Z,100461.50
2023-07-05T03:17:17.654Z,100467.38
2023-07-05T03:20:20.982Z,100458.38
2023-07-05T03:23:23.549Z,100458.00
2023-07-05T03:26:27.203Z,100458.31
2023-07-05T03:29:30.959Z,100447.38
2023-07-05T03:32:35.094Z,100467.72
2023-07-05T03:35:37.485Z,100472.47
2023-07-05T03:38:40.369Z,100463.09
2023-07-05T03:41:42.740Z,100453.72
2023-07-05T03:44:45.291Z,100471.25
2023-07-05T03:47:47.714Z,100471.25
2023-07-05T03:50:50.278Z,100464.94
2023-07-05T03:53:57.848Z,100468.88
2023-07-05T03:57:00.201Z,100473.19
2023-07-05T04:00:02.642Z,100473.56
2023-07-05T04:03:14.869Z,100473.13
2023-07-05T04:06:18.246Z,100469.56
2023-07-05T04:09:20.611Z,100458.94
2023-07-05T04:12:23.002Z,100466.38
2023-07-05T04:15:25.458Z,100460.13
2023-07-05T04:18:28.972Z,100460.91
2023-07-05T04:21:31.401Z,100472.63
2023-07-05T04:24:33.839Z,100460.50
2023-07-05T04:27:36.726Z,100473.78
2023-07-05T04:30:39.072Z,100466.34
2023-07-05T04:33:41.465Z,100475.69
2023-07-05T04:36:43.809Z,100486.31
2023-07-05T04:39:46.362Z,100478.03
2023-07-05T04:42:49.158Z,100488.63
2023-07-05T04:45:52.624Z,100488.16
2023-07-05T04:48:55.011Z,100480.59
2023-07-05T04:51:57.382Z,100483.38
2023-07-05T04:54:59.819Z,100482.91
2023-07-05T04:58:04.918Z,100480.09
2023-07-05T05:01:09.197Z,100489.44
2023-07-05T05:04:11.916Z,100467.59
2023-07-05T05:07:14.542Z,100492.25
2023-07-05T05:10:17.008Z,100489.88
2023-07-05T05:13:19.715Z,100503.94
2023-07-05T05:16:22.147Z,100483.53
2023-07-05T05:19:24.576Z,100507.00
2023-07-05T05:22:26.995Z,100479.56
2023-07-05T05:25:29.399Z,100493.13
2023-07-05T05:28:31.946Z,100501.41
2023-07-05T05:31:34.369Z,100484.50
2023-07-05T05:34:36.957Z,100500.56
2023-07-05T05:37:40.282Z,100490.25
2023-07-05T05:40:42.670Z,100486.66
2023-07-05T05:43:46.296Z,100486.59
2023-07-05T05:46:48.749Z,100488.09
2023-07-05T05:49:51.193Z,100468.88
2023-07-05T05:52:53.577Z,100488.34
2023-07-05T05:55:57.600Z,100489.47
2023-07-05T05:58:59.986Z,100490.13
2023-07-05T06:02:02.387Z,100482.63
2023-07-05T06:05:05.108Z,100491.88
2023-07-05T06:08:07.500Z,100492.03
2023-07-05T06:11:09.916Z,100491.91
2023-07-05T06:14:12.296Z,100457.75
2023-07-05T06:17:14.641Z,100482.38
2023-07-05T06:20:17.567Z,100463.56
2023-07-05T06:23:20.518Z,100471.72
2023-07-05T06:26:24.321Z,100480.53
2023-07-05T06:29:26.837Z,100480.41
2023-07-05T06:32:29.512Z,100460.63
2023-07-05T06:35:32.479Z,100481.88
2023-07-05T06:38:35.075Z,100466.69
2023-07-05T06:41:37.484Z,100467.88
2023-07-05T06:44:39.938Z,100466.78
2023-07-05T06:47:42.779Z,100468.44
2023-07-05T06:50:45.238Z,100466.63
2023-07-05T06:53:49.780Z,100445.28
2023-07-05T06:56:52.536Z,100442.75
2023-07-05T06:59:54.937Z,100466.16
2023-07-05T07:02:58.024Z,100461.28
2023-07-05T07:06:00.697Z,100449.69
2023-07-05T07:09:05.034Z,100438.84
2023-07-05T07:12:08.819Z,100468.09
2023-07-05T07:15:11.233Z,100453.72
2023-07-05T07:18:13.633Z,100459.75
2023-07-05T07:21:18.091Z,100459.13
2023-07-05T07:24:20.710Z,100440.34
2023-07-05T07:27:23.157Z,100438.06
2023-07-05T07:30:26.858Z,100427.06
2023-07-05T07:33:29.296Z,100436.41
2023-07-05T07:36:33.108Z,100436.19
2023-07-05T07:39:35.506Z,100442.88
2023-07-05T07:42:37.940Z,100416.22
2023-07-05T07:45:40.451Z,100441.56
2023-07-05T07:48:44.173Z,100419.03
2023-07-05T07:51:46.697Z,100447.09
2023-07-05T07:54:49.233Z,100441.78
2023-07-05T07:57:51.683Z,100432.47
2023-07-05T08:00:54.537Z,100435.56
2023-07-05T08:03:58.564Z,100435.91
2023-07-05T08:07:02.460Z,100435.56
2023-07-05T08:10:05.382Z,100435.91
2023-07-05T08:13:07.754Z,100432.47
2023-07-05T08:16:10.196Z,100435.13
2023-07-05T08:19:12.745Z,100437.34
2023-07-05T08:22:16.619Z,100423.34
2023-07-05T08:25:20.105Z,100429.56
2023-07-05T08:28:23.541Z,100427.00
2023-07-05T08:31:26.194Z,100428.00
2023-07-05T08:34:28.841Z,100428.22
2023-07-05T08:37:31.520Z,100432.19
2023-07-05T08:40:39.423Z,100431.75
2023-07-05T08:43:45.794Z,100431.41
2023-07-05T08:46:52.188Z,100429.09
2023-07-05T08:50:17.823Z,100429.09
2023-07-05T08:53:25.021Z,100413.75
2023-07-05T08:56:37.707Z,100426.53
2023-07-05T08:59:48.932Z,100422.31
2023-07-05T09:02:51.748Z,100415.78
2023-07-05T09:06:00.556Z,100423.09
2023-07-05T09:09:27.294Z,100425.78
2023-07-05T09:12:38.626Z,100422.56
2023-07-05T09:16:07.388Z,100424.22
2023-07-05T09:19:42.105Z,100418.22
2023-07-05T09:22:45.275Z,100411.66
2023-07-05T09:25:55.755Z,100389.69
2023-07-05T09:29:31.765Z,100411.47
2023-07-05T09:32:37.422Z,100413.13
2023-07-05T09:35:44.583Z,100406.47
2023-07-05T09:38:47.758Z,100417.34
2023-07-05T09:41:51.639Z,100398.69
2023-07-05T09:44:54.070Z,100409.69
2023-07-05T09:48:00.606Z,100378.59
2023-07-05T09:51:05.258Z,100398.69
2023-07-05T09:54:12.054Z,100375.03
2023-07-05T09:57:24.118Z,100352.38
2023-07-05T10:00:35.609Z,100396.25
2023-07-05T10:03:45.875Z,100393.91
2023-07-05T10:06:49.201Z,100338.03
2023-07-05T10:10:17.828Z,100389.81
2023-07-05T10:13:23.522Z,100383.81
2023-07-05T10:16:25.996Z,100363.25
2023-07-05T10:19:39.745Z,100383.47
2023-07-05T10:22:42.126Z,100382.81
2023-07-05T10:25:45.710Z,100368.72
2023-07-05T10:28:48.145Z,100359.63
2023-07-05T10:31:59.347Z,100341.78
2023-07-05T10:35:02.961Z,100364.88
2023-07-05T10:38:20.089Z,100365.97
2023-07-05T10:41:33.099Z,100364.09
2023-07-05T10:44:36.439Z,100368.63
2023-07-05T10:47:39.846Z,100356.31
2023-07-05T10:50:42.741Z,100360.31
2023-07-05T10:53:49.618Z,100336.56
2023-07-05T10:56:52.277Z,100354.97
2023-07-05T11:00:29.645Z,100355.66
2023-07-05T11:03:57.164Z,100344.78
2023-07-05T11:07:07.636Z,100325.66
2023-07-05T11:10:29.731Z,100343.75
2023-07-05T11:13:32.263Z,100337.97
2023-07-05T11:16:35.202Z,100338.28
2023-07-05T11:19:37.653Z,100327.19
2023-07-05T11:22:45.809Z,100313.88
2023-07-05T11:26:00.144Z,100318.72
2023-07-05T11:29:31.654Z,100318.16
2023-07-05T11:33:13.624Z,100324.81
2023-07-05T11:36:29.984Z,100285.84
2023-07-05T11:39:39.126Z,100296.38
2023-07-05T11:42:41.600Z,100300.69
2023-07-05T11:45:47.709Z,100261.56
2023-07-05T11:48:50.775Z,100258.69
2023-07-05T11:51:59.107Z,100270.03
2023-07-05T11:55:15.029Z,100297.19
2023-07-05T11:58:18.772Z,100294.88
2023-07-05T12:01:28.475Z,100279.34
2023-07-05T12:04:33.749Z,100263.00
2023-07-05T12:07:36.998Z,100249.25
2023-07-05T12:10:42.778Z,100253.38
2023-07-05T12:13:45.199Z,100267.91
2023-07-05T12:16:48.052Z,100244.72
2023-07-05T12:19:51.277Z,100258.38
2023-07-05T12:22:53.665Z,100246.38
2023-07-05T12:25:58.537Z,100239.72
2023-07-05T12:29:04.498Z,100251.91
2023-07-05T12:32:09.208Z,100230.72
2023-07-05T12:35:22.133Z,100238.81
2023-07-05T12:38:24.536Z,100247.50
2023-07-05T12:41:28.312Z,100216.00
2023-07-05T12:44:32.177Z,100234.28
2023-07-05T12:47:34.710Z,100211.66
2023-07-05T12:50:37.106Z,100216.44
2023-07-05T12:53:39.616Z,100219.88
2023-07-05T12:56:45.891Z,100205.47
2023-07-05T13:00:00.306Z,100206.91
2023-07-05T13:03:15.804Z,100205.47
2023-07-05T13:06:19.578Z,100196.03
2023-07-05T13:09:30.150Z,100197.69
2023-07-05T13:12:46.957Z,100178.66
2023-07-05T13:15:49.455Z,100190.28
2023-07-05T13:18:57.866Z,100189.19
2023-07-05T13:22:17.123Z,100178.22
2023-07-05T13:25:31.103Z,100168.91
2023-07-05T13:28:33.649Z,100177.44
2023-07-05T13:31:36.176Z,100180.22
2023-07-05T13:34:38.868Z,100177.44
2023-07-05T13:37:41.279Z,100173.66
2023-07-05T13:40:59.395Z,100168.47
2023-07-05T13:44:01.828Z,100155.84
2023-07-05T13:47:06.041Z,100152.72
2023-07-05T13:50:09.104Z,100145.63
2023-07-05T13:53:20.013Z,100099.94
2023-07-05T13:56:22.771Z,100134.22
2023-07-05T13:59:25.266Z,100134.22
2023-07-05T14:02:33.095Z,100111.06
2023-07-05T14:05:35.732Z,100111.63
2023-07-05T14:08:38.185Z,100130.78
2023-07-05T14:11:42.663Z,100123.69
2023-07-05T14:14:45.121Z,100114.72
2023-07-05T14:17:47.641Z,100111.63
2023-07-05T14:20:50.266Z,100106.31
2023-07-05T14:23:52.856Z,100111.41
2023-07-05T14:26:55.280Z,100125.03
2023-07-05T14:29:58.534Z,100118.72
2023-07-05T14:33:01.115Z,100105.09
2023-07-05T14:36:03.888Z,100119.16
2023-07-05T14:39:06.294Z,100106.97
2023-07-05T14:42:10.758Z,100109.28
2023-07-05T14:45:20.742Z,100096.66
2023-07-05T14:48:23.120Z,100104.19
2023-07-05T14:51:26.272Z,100095.88
2023-07-05T14:54:29.596Z,100105.41
2023-07-05T14:57:31.955Z,100102.66
2023-07-05T15:00:34.778Z,100098.31
2023-07-05T15:03:41.053Z,100101.09
2023-07-05T15:06:43.474Z,100084.22
2023-07-05T15:09:46.750Z,100081.69
2023-07-05T15:12:49.138Z,100094.44
2023-07-05T15:15:51.629Z,100084.00
2023-07-05T15:18:54.286Z,100069.50
2023-07-05T15:21:56.674Z,100087.09
2023-07-05T15:25:00.444Z,100082.78
2023-07-05T15:28:06.400Z,100082.88
2023-07-05T15:31:10.700Z,100092.97
2023-07-05T15:34:13.158Z,100092.97
2023-07-05T15:37:15.531Z,100080.47
2023-07-05T15:40:21.270Z,100091.41
2023-07-05T15:43:24.596Z,100092.63
2023-07-05T15:46:27.754Z,100077.03
2023-07-05T15:49:30.147Z,100086.31
2023-07-05T15:52:33.907Z,100076.34
2023-07-05T15:55:36.303Z,100089.09
2023-07-05T15:58:44.465Z,100088.31
2023-07-05T16:01:53.146Z,100085.22
2023-07-05T16:04:55.976Z,100085.22
2023-07-05T16:07:58.595Z,100068.94
2023-07-05T16:11:01.187Z,100086.00
2023-07-05T16:14:03.837Z,100090.75
2023-07-05T16:17:06.449Z,100089.22
2023-07-05T16:20:09.328Z,100076.91
2023-07-05T16:23:11.694Z,100096.75
2023-07-05T16:26:14.140Z,100093.97
2023-07-05T16:29:18.618Z,100087.00
2023-07-05T16:32:21.116Z,100065.94
2023-07-05T16:35:23.597Z,100082.56
2023-07-05T16:38:26.368Z,100060.84
2023-07-05T16:41:28.911Z,100076.78
2023-07-05T16:44:31.313Z,100079.47
2023-07-05T16:47:33.735Z,100072.38
2023-07-05T16:50:36.274Z,100068.94
2023-07-05T16:53:40.456Z,100070.38
2023-07-05T16:56:42.956Z,100070.94
2023-07-05T16:59:45.448Z,100072.91
2023-07-05T17:02:47.956Z,100068.81
2023-07-05T17:05:54.440Z,100078.34
2023-07-05T17:08:56.841Z,100073.69
2023-07-05T17:11:59.537Z,100072.16
2023-07-05T17:15:01.947Z,100078.00
2023-07-05T17:18:04.943Z,100084.75
2023-07-05T17:21:09.953Z,100085.53
2023-07-05T17:24:12.351Z,100077.34
2023-07-05T17:27:14.792Z,100081.22
2023-07-05T17:30:17.509Z,100091.53
2023-07-05T17:33:19.891Z,100093.50
2023-07-05T17:36:23.781Z,100092.75
2023-07-05T17:39:26.285Z,100084.22
2023-07-05T17:42:28.752Z,100085.44
2023-07-05T17:45:31.159Z,100093.94
2023-07-05T17:48:33.635Z,100099.16
2023-07-05T17:51:36.122Z,100108.25
2023-07-05T17:54:38.771Z,100092.63
2023-07-05T17:57:41.138Z,100100.81
2023-07-05T18:00:47.079Z,100109.44
2023-07-05T18:03:49.499Z,100096.81
2023-07-05T18:06:52.449Z,100112.66
2023-07-05T18:09:54.905Z,100116.66
2023-07-05T18:12:57.319Z,100113.88
2023-07-05T18:16:05.021Z,100111.09
2023-07-05T18:19:08.617Z,100121.41
2023-07-05T18:22:11.070Z,100124.63
2023-07-05T18:25:14.500Z,100121.84
2023-07-05T18:28:17.182Z,100127.03
2023-07-05T18:31:21.498Z,100122.28
2023-07-05T18:34:24.230Z,100132.59
2023-07-05T18:37:26.689Z,100122.94
2023-07-05T18:40:29.228Z,100121.38
2023-07-05T18:43:31.703Z,100129.69
2023-07-05T18:46:34.094Z,100134.88
2023-07-05T18:49:36.519Z,100143.19
2023-07-05T18:52:39.610Z,100152.16
2023-07-05T18:55:42.600Z,100169.88
2023-07-05T18:58:45.187Z,100155.56
2023-07-05T19:01:47.738Z,100156.69
2023-07-05T19:04:50.227Z,100156.69
2023-07-05T19:07:52.631Z,100170.50
2023-07-05T19:10:59.095Z,100174.06
2023-07-05T19:14:01.950Z,100176.81
2023-07-05T19:17:05.811Z,100191.34
2023-07-05T19:20:10.019Z,100189.78
2023-07-05T19:23:12.426Z,100184.53
2023-07-05T19:26:17.681Z,100191.53
2023-07-05T19:29:22.127Z,100198.28
2023-07-05T19:32:24.900Z,100204.16
2023-07-05T19:35:27.734Z,100200.72
2023-07-05T19:38:30.196Z,100198.03
2023-07-05T19:41:33.096Z,100207.81
2023-07-05T19:44:35.604Z,100200.72
2023-07-05T19:47:38.075Z,100206.69
2023-07-05T19:50:40.544Z,100205.13
2023-07-05T19:53:42.996Z,100197.25
2023-07-05T19:56:45.908Z,100201.25
2023-07-05T19:59:48.281Z,100208.78
2023-07-05T20:02:50.820Z,100209.97
2023-07-05T20:05:53.369Z,100198.38
2023-07-05T20:08:56.355Z,100210.94
2023-07-05T20:11:58.991Z,100208.63
2023-07-05T20:15:01.413Z,100215.28
2023-07-05T20:18:05.001Z,100211.53
2023-07-05T20:21:10.265Z,100224.06
2023-07-05T20:24:15.256Z,100221.31
2023-07-05T20:27:17.689Z,100226.50
2023-07-05T20:30:21.438Z,100212.50
2023-07-05T20:33:32.464Z,100222.94
2023-07-05T20:36:36.874Z,100231.69
2023-07-05T20:39:39.314Z,100222.53
2023-07-05T20:42:43.258Z,100219.75
2023-07-05T20:45:45.670Z,100225.28
2023-07-05T20:48:48.083Z,100227.63
2023-07-05T20:51:53.202Z,100236.97
2023-07-05T20:54:55.618Z,100234.63
2023-07-05T20:57:59.188Z,100221.50
2023-07-05T21:01:01.756Z,100194.38
2023-07-05T21:04:04.934Z,100245.00
2023-07-05T21:07:07.393Z,100229.88
2023-07-05T21:10:10.636Z,100227.56
2023-07-05T21:13:21.107Z,100241.19
2023-07-05T21:16:23.799Z,100249.84
2023-07-05T21:19:26.190Z,100238.28
2023-07-05T21:22:28.607Z,100254.25
2023-07-05T21:25:32.769Z,100244.06
2023-07-05T21:28:35.313Z,100246.81
2023-07-05T21:31:37.800Z,100263.84
2023-07-05T21:34:40.428Z,100255.97
2023-07-05T21:37:43.113Z,100253.38
2023-07-05T21:40:46.115Z,100235.41
2023-07-05T21:43:48.631Z,100255.72
2023-07-05T21:46:52.908Z,100250.44
2023-07-05T21:49:55.711Z,100242.84
2023-07-05T21:52:58.124Z,100245.34
2023-07-05T21:56:02.245Z,100260.22
2023-07-05T21:59:05.110Z,100261.00
2023-07-05T22:02:07.668Z,100268.50
2023-07-05T22:05:10.243Z,100268.16
2023-07-05T22:08:12.651Z,100246.81
2023-07-05T22:11:15.664Z,100261.66
2023-07-05T22:14:18.076Z,100261.94
2023-07-05T22:17:22.505Z,100247.34
2023-07-05T22:20:26.291Z,100255.38
2023-07-05T22:23:28.682Z,100256.06
2023-07-05T22:26:31.085Z,100247.59
2023-07-05T22:29:33.856Z,100266.75
2023-07-05T22:32:36.453Z,100263.03
2023-07-05T22:35:38.833Z,100254.91
2023-07-05T22:38:41.557Z,100268.22
2023-07-05T22:41:44.009Z,100266.06
2023-07-05T22:44:46.539Z,100262.34
2023-07-05T22:47:49.052Z,100274.09
2023-07-05T22:50:51.441Z,100253.06
2023-07-05T22:53:53.892Z,100271.75
2023-07-05T22:56:58.066Z,100279.19
2023-07-05T23:00:00.553Z,100279.78
2023-07-05T23:03:03.113Z,100294.72
2023-07-05T23:06:10.797Z,100298.63
2023-07-05T23:09:13.188Z,100301.03
2023-07-05T23:12:18.193Z,100307.00
2023-07-05T23:15:23.975Z,100298.03
2023-07-05T23:18:27.148Z,100306.63
2023-07-05T23:21:29.627Z,100300.34
2023-07-05T23:24:32.003Z,100289.84
2023-07-05T23:27:34.788Z,100299.41
2023-07-05T23:30:37.190Z,100291.19
2023-07-05T23:33:40.380Z,100299.31
2023-07-05T23:36:43.527Z,100289.22
2023-07-05T23:39:46.363Z,100308.31
2023-07-05T23:42:48.755Z,100304.50
2023-07-05T23:45:51.103Z,100301.47
2023-07-05T23:48:54.499Z,100319.94
2023-07-05T23:51:57.797Z,100311.75
2023-07-05T23:55:00.177Z,100319.16
2023-07-05T23:58:05.864Z,100339.22
